sensor_id;sensor_type;location;lat;lon;timestamp;P1;P2;P0
24012;PMS7003;12220;50.194;18.948;2023-03-02T00:01:04;76;62;35
24012;PMS7003;12220;50.194;18.948;2023-03-02T00:03:21;71;51;33
24012;PMS7003;12220;50.194;18.948;2023-03-02T00:05:22;72;55;34
24012;PMS7003;12220;50.194;18.948;2023-03-02T00:07:29;79;66;38
24012;PMS7003;12220;50.194;18.948;2023-03-02T00:09:35;75;59;35
24012;PMS7003;12220;50.194;18.948;2023-03-02T00:11:38;70;54;33
24012;PMS7003;12220;50.194;18.948;2023-03-02T00:13:39;76;59;34
24012;PMS7003;12220;50.194;18.948;2023-03-02T00:15:42;76;56;34
24012;PMS7003;12220;50.194;18.948;2023-03-02T00:17:44;69;51;31
24012;PMS7003;12220;50.194;18.948;2023-03-02T00:19:51;70;53;33
24012;PMS7003;12220;50.194;18.948;2023-03-02T00:24:43;66;51;30
24012;PMS7003;12220;50.194;18.948;2023-03-02T00:26:58;66;49;31
24012;PMS7003;12220;50.194;18.948;2023-03-02T00:34:09;69;54;33
24012;PMS7003;12220;50.194;18.948;2023-03-02T00:36:57;69;53;34
24012;PMS7003;12220;50.194;18.948;2023-03-02T01:07:33;52;37;26
24012;PMS7003;12220;50.194;18.948;2023-03-02T01:19:33;60;45;26
24012;PMS7003;12220;50.194;18.948;2023-03-02T01:21:58;55;46;28
24012;PMS7003;12220;50.194;18.948;2023-03-02T01:24:00;63;46;27
24012;PMS7003;12220;50.194;18.948;2023-03-02T01:33:44;60;44;27
24012;PMS7003;12220;50.194;18.948;2023-03-02T01:38:46;65;45;27
24012;PMS7003;12220;50.194;18.948;2023-03-02T01:41:12;55;42;24
24012;PMS7003;12220;50.194;18.948;2023-03-02T01:54:23;49;41;28
24012;PMS7003;12220;50.194;18.948;2023-03-02T01:56:26;58;46;28
24012;PMS7003;12220;50.194;18.948;2023-03-02T01:58:35;57;43;28
24012;PMS7003;12220;50.194;18.948;2023-03-02T02:00:37;59;45;28
24012;PMS7003;12220;50.194;18.948;2023-03-02T02:02:41;60;48;30
24012;PMS7003;12220;50.194;18.948;2023-03-02T02:04:43;63;47;29
24012;PMS7003;12220;50.194;18.948;2023-03-02T02:06:52;67;50;32
24012;PMS7003;12220;50.194;18.948;2023-03-02T02:08:59;66;50;29
24012;PMS7003;12220;50.194;18.948;2023-03-02T02:11:04;65;52;33
24012;PMS7003;12220;50.194;18.948;2023-03-02T02:13:09;70;53;32
24012;PMS7003;12220;50.194;18.948;2023-03-02T02:15:11;68;53;32
24012;PMS7003;12220;50.194;18.948;2023-03-02T02:17:12;70;51;29
24012;PMS7003;12220;50.194;18.948;2023-03-02T02:21:28;71;53;30
24012;PMS7003;12220;50.194;18.948;2023-03-02T02:28:10;69;53;32
24012;PMS7003;12220;50.194;18.948;2023-03-02T02:30:16;60;49;31
24012;PMS7003;12220;50.194;18.948;2023-03-02T02:34:38;67;49;30
24012;PMS7003;12220;50.194;18.948;2023-03-02T02:36:46;67;47;29
24012;PMS7003;12220;50.194;18.948;2023-03-02T02:38:50;69;51;31
24012;PMS7003;12220;50.194;18.948;2023-03-02T02:40:55;63;48;31
24012;PMS7003;12220;50.194;18.948;2023-03-02T02:43:00;75;57;31
24012;PMS7003;12220;50.194;18.948;2023-03-02T02:45:03;66;50;30
24012;PMS7003;12220;50.194;18.948;2023-03-02T02:47:13;62;48;31
24012;PMS7003;12220;50.194;18.948;2023-03-02T02:51:48;67;50;30
24012;PMS7003;12220;50.194;18.948;2023-03-02T02:55:58;72;51;30
24012;PMS7003;12220;50.194;18.948;2023-03-02T02:58:01;66;51;30
24012;PMS7003;12220;50.194;18.948;2023-03-02T03:00:10;66;51;31
24012;PMS7003;12220;50.194;18.948;2023-03-02T03:02:26;59;44;27
24012;PMS7003;12220;50.194;18.948;2023-03-02T03:04:31;65;50;31
24012;PMS7003;12220;50.194;18.948;2023-03-02T03:06:34;65;49;32
24012;PMS7003;12220;50.194;18.948;2023-03-02T03:10:55;67;50;31
24012;PMS7003;12220;50.194;18.948;2023-03-02T03:13:02;65;52;33
24012;PMS7003;12220;50.194;18.948;2023-03-02T03:15:04;72;56;34
24012;PMS7003;12220;50.194;18.948;2023-03-02T03:17:07;72;52;30
24012;PMS7003;12220;50.194;18.948;2023-03-02T03:19:14;68;53;32
24012;PMS7003;12220;50.194;18.948;2023-03-02T03:21:21;67;50;32
24012;PMS7003;12220;50.194;18.948;2023-03-02T03:23:22;49;41;18
24012;PMS7003;12220;50.194;18.948;2023-03-02T03:25:27;70;53;31
24012;PMS7003;12220;50.194;18.948;2023-03-02T03:27:34;70;53;31
24012;PMS7003;12220;50.194;18.948;2023-03-02T03:29:37;62;48;28
24012;PMS7003;12220;50.194;18.948;2023-03-02T03:31:40;63;48;29
24012;PMS7003;12220;50.194;18.948;2023-03-02T03:33:42;66;47;29
24012;PMS7003;12220;50.194;18.948;2023-03-02T03:35:43;62;47;28
24012;PMS7003;12220;50.194;18.948;2023-03-02T03:37:48;67;52;31
24012;PMS7003;12220;50.194;18.948;2023-03-02T03:39:51;67;51;33
24012;PMS7003;12220;50.194;18.948;2023-03-02T03:41:53;62;47;29
24012;PMS7003;12220;50.194;18.948;2023-03-02T03:43:54;63;48;32
24012;PMS7003;12220;50.194;18.948;2023-03-02T03:46:03;68;52;29
24012;PMS7003;12220;50.194;18.948;2023-03-02T03:48:05;72;51;31
24012;PMS7003;12220;50.194;18.948;2023-03-02T03:50:07;56;46;28
24012;PMS7003;12220;50.194;18.948;2023-03-02T03:52:09;63;48;28
24012;PMS7003;12220;50.194;18.948;2023-03-02T03:54:19;60;46;29
24012;PMS7003;12220;50.194;18.948;2023-03-02T03:56:20;60;48;30
24012;PMS7003;12220;50.194;18.948;2023-03-02T03:58:24;59;48;29
24012;PMS7003;12220;50.194;18.948;2023-03-02T04:00:26;59;44;29
24012;PMS7003;12220;50.194;18.948;2023-03-02T04:02:34;63;48;29
24012;PMS7003;12220;50.194;18.948;2023-03-02T04:04:36;48;38;26
24012;PMS7003;12220;50.194;18.948;2023-03-02T04:06:38;63;45;27
24012;PMS7003;12220;50.194;18.948;2023-03-02T04:08:40;60;46;28
24012;PMS7003;12220;50.194;18.948;2023-03-02T04:10:49;62;43;28
24012;PMS7003;12220;50.194;18.948;2023-03-02T04:12:51;64;49;30
24012;PMS7003;12220;50.194;18.948;2023-03-02T04:14:52;63;48;29
24012;PMS7003;12220;50.194;18.948;2023-03-02T04:16:54;61;45;29
24012;PMS7003;12220;50.194;18.948;2023-03-02T04:19:06;62;47;30
24012;PMS7003;12220;50.194;18.948;2023-03-02T04:21:09;63;48;29
24012;PMS7003;12220;50.194;18.948;2023-03-02T04:23:10;63;48;29
24012;PMS7003;12220;50.194;18.948;2023-03-02T04:25:12;61;48;28
24012;PMS7003;12220;50.194;18.948;2023-03-02T04:27:21;64;46;28
24012;PMS7003;12220;50.194;18.948;2023-03-02T04:29:22;69;51;30
24012;PMS7003;12220;50.194;18.948;2023-03-02T04:31:24;69;51;30
24012;PMS7003;12220;50.194;18.948;2023-03-02T04:33:27;64;49;32
24012;PMS7003;12220;50.194;18.948;2023-03-02T04:35:36;69;51;32
24012;PMS7003;12220;50.194;18.948;2023-03-02T04:37:48;65;49;30
24012;PMS7003;12220;50.194;18.948;2023-03-02T04:45:14;58;47;29
24012;PMS7003;12220;50.194;18.948;2023-03-02T04:47:20;52;41;25
24012;PMS7003;12220;50.194;18.948;2023-03-02T04:49:22;64;48;29
24012;PMS7003;12220;50.194;18.948;2023-03-02T04:51:28;57;45;28
24012;PMS7003;12220;50.194;18.948;2023-03-02T04:53:37;61;48;29
24012;PMS7003;12220;50.194;18.948;2023-03-02T04:55:38;70;51;30
24012;PMS7003;12220;50.194;18.948;2023-03-02T04:57:42;64;48;26
24012;PMS7003;12220;50.194;18.948;2023-03-02T04:59:44;68;52;31
24012;PMS7003;12220;50.194;18.948;2023-03-02T05:01:45;71;50;31
24012;PMS7003;12220;50.194;18.948;2023-03-02T05:03:48;71;51;32
24012;PMS7003;12220;50.194;18.948;2023-03-02T05:05:58;73;53;32
24012;PMS7003;12220;50.194;18.948;2023-03-02T05:08:04;65;49;32
24012;PMS7003;12220;50.194;18.948;2023-03-02T05:10:06;65;48;30
24012;PMS7003;12220;50.194;18.948;2023-03-02T05:12:08;66;49;27
24012;PMS7003;12220;50.194;18.948;2023-03-02T05:14:13;65;51;31
24012;PMS7003;12220;50.194;18.948;2023-03-02T05:16:14;66;49;30
24012;PMS7003;12220;50.194;18.948;2023-03-02T05:18:20;62;47;26
24012;PMS7003;12220;50.194;18.948;2023-03-02T05:20:43;44;38;27
24012;PMS7003;12220;50.194;18.948;2023-03-02T05:22:45;58;45;28
24012;PMS7003;12220;50.194;18.948;2023-03-02T05:24:54;64;48;30
24012;PMS7003;12220;50.194;18.948;2023-03-02T05:26:55;60;48;29
24012;PMS7003;12220;50.194;18.948;2023-03-02T05:28:57;64;49;29
24012;PMS7003;12220;50.194;18.948;2023-03-02T05:30:59;66;50;30
24012;PMS7003;12220;50.194;18.948;2023-03-02T05:33:09;71;52;31
24012;PMS7003;12220;50.194;18.948;2023-03-02T05:35:11;63;48;28
24012;PMS7003;12220;50.194;18.948;2023-03-02T05:37:14;65;50;30
24012;PMS7003;12220;50.194;18.948;2023-03-02T05:39:15;67;48;29
24012;PMS7003;12220;50.194;18.948;2023-03-02T05:41:25;62;48;28
24012;PMS7003;12220;50.194;18.948;2023-03-02T05:43:27;54;38;25
24012;PMS7003;12220;50.194;18.948;2023-03-02T05:45:30;57;43;28
24012;PMS7003;12220;50.194;18.948;2023-03-02T05:47:34;71;51;32
24012;PMS7003;12220;50.194;18.948;2023-03-02T05:49:40;66;48;28
24012;PMS7003;12220;50.194;18.948;2023-03-02T05:51:42;67;50;29
24012;PMS7003;12220;50.194;18.948;2023-03-02T05:53:43;65;52;32
24012;PMS7003;12220;50.194;18.948;2023-03-02T05:55:44;62;46;28
24012;PMS7003;12220;50.194;18.948;2023-03-02T05:57:56;61;48;31
24012;PMS7003;12220;50.194;18.948;2023-03-02T05:59:58;67;50;29
24012;PMS7003;12220;50.194;18.948;2023-03-02T06:02:00;65;51;32
24012;PMS7003;12220;50.194;18.948;2023-03-02T06:04:03;66;50;32
24012;PMS7003;12220;50.194;18.948;2023-03-02T06:06:12;75;53;31
24012;PMS7003;12220;50.194;18.948;2023-03-02T06:08:13;68;50;32
24012;PMS7003;12220;50.194;18.948;2023-03-02T06:10:15;64;48;33
24012;PMS7003;12220;50.194;18.948;2023-03-02T06:12:17;69;51;32
24012;PMS7003;12220;50.194;18.948;2023-03-02T06:16:48;57;41;24
24012;PMS7003;12220;50.194;18.948;2023-03-02T06:18:50;62;47;30
24012;PMS7003;12220;50.194;18.948;2023-03-02T06:20:52;67;49;30
24012;PMS7003;12220;50.194;18.948;2023-03-02T06:22:53;66;48;28
24012;PMS7003;12220;50.194;18.948;2023-03-02T06:25:04;62;51;32
24012;PMS7003;12220;50.194;18.948;2023-03-02T06:27:06;73;52;30
24012;PMS7003;12220;50.194;18.948;2023-03-02T06:29:10;72;54;33
24012;PMS7003;12220;50.194;18.948;2023-03-02T06:31:11;74;54;32
24012;PMS7003;12220;50.194;18.948;2023-03-02T06:33:19;72;52;33
24012;PMS7003;12220;50.194;18.948;2023-03-02T06:35:21;70;55;33
24012;PMS7003;12220;50.194;18.948;2023-03-02T06:37:23;75;57;34
24012;PMS7003;12220;50.194;18.948;2023-03-02T06:39:25;69;52;34
24012;PMS7003;12220;50.194;18.948;2023-03-02T06:41:34;66;46;28
24012;PMS7003;12220;50.194;18.948;2023-03-02T06:43:36;58;45;29
24012;PMS7003;12220;50.194;18.948;2023-03-02T06:45:37;68;51;29
24012;PMS7003;12220;50.194;18.948;2023-03-02T06:47:39;70;53;31
24012;PMS7003;12220;50.194;18.948;2023-03-02T06:49:50;64;49;30
24012;PMS7003;12220;50.194;18.948;2023-03-02T06:51:51;67;51;33
24012;PMS7003;12220;50.194;18.948;2023-03-02T06:53:53;68;53;32
24012;PMS7003;12220;50.194;18.948;2023-03-02T06:55:54;61;48;30
24012;PMS7003;12220;50.194;18.948;2023-03-02T06:58:06;64;49;31
24012;PMS7003;12220;50.194;18.948;2023-03-02T07:00:13;58;44;27
24012;PMS7003;12220;50.194;18.948;2023-03-02T07:02:22;61;47;30
24012;PMS7003;12220;50.194;18.948;2023-03-02T07:04:24;63;46;29
24012;PMS7003;12220;50.194;18.948;2023-03-02T07:06:28;62;51;30
24012;PMS7003;12220;50.194;18.948;2023-03-02T07:08:29;62;45;28
24012;PMS7003;12220;50.194;18.948;2023-03-02T07:10:31;65;47;30
24012;PMS7003;12220;50.194;18.948;2023-03-02T07:12:33;71;50;31
24012;PMS7003;12220;50.194;18.948;2023-03-02T07:14:43;59;46;30
24012;PMS7003;12220;50.194;18.948;2023-03-02T07:16:45;64;46;28
24012;PMS7003;12220;50.194;18.948;2023-03-02T07:18:49;60;44;27
24012;PMS7003;12220;50.194;18.948;2023-03-02T07:20:50;68;49;30
24012;PMS7003;12220;50.194;18.948;2023-03-02T07:23:01;62;48;28
24012;PMS7003;12220;50.194;18.948;2023-03-02T07:25:03;63;47;28
24012;PMS7003;12220;50.194;18.948;2023-03-02T07:27:05;56;43;28
24012;PMS7003;12220;50.194;18.948;2023-03-02T07:29:09;66;46;29
24012;PMS7003;12220;50.194;18.948;2023-03-02T07:31:14;58;45;27
24012;PMS7003;12220;50.194;18.948;2023-03-02T07:33:16;61;49;29
24012;PMS7003;12220;50.194;18.948;2023-03-02T07:35:19;60;44;29
24012;PMS7003;12220;50.194;18.948;2023-03-02T07:37:21;58;43;27
24012;PMS7003;12220;50.194;18.948;2023-03-02T07:39:29;51;42;26
24012;PMS7003;12220;50.194;18.948;2023-03-02T07:41:30;56;43;26
24012;PMS7003;12220;50.194;18.948;2023-03-02T07:43:32;56;43;24
24012;PMS7003;12220;50.194;18.948;2023-03-02T07:45:36;62;46;28
24012;PMS7003;12220;50.194;18.948;2023-03-02T07:47:44;55;44;29
24012;PMS7003;12220;50.194;18.948;2023-03-02T07:49:46;59;46;29
24012;PMS7003;12220;50.194;18.948;2023-03-02T07:51:47;56;44;28
24012;PMS7003;12220;50.194;18.948;2023-03-02T07:53:49;53;40;23
24012;PMS7003;12220;50.194;18.948;2023-03-02T07:56:04;49;39;22
24012;PMS7003;12220;50.194;18.948;2023-03-02T07:58:07;52;40;24
24012;PMS7003;12220;50.194;18.948;2023-03-02T08:00:09;42;35;25
24012;PMS7003;12220;50.194;18.948;2023-03-02T08:02:11;52;40;25
24012;PMS7003;12220;50.194;18.948;2023-03-02T08:04:16;46;38;25
24012;PMS7003;12220;50.194;18.948;2023-03-02T08:06:17;52;39;25
24012;PMS7003;12220;50.194;18.948;2023-03-02T08:08:19;57;44;28
24012;PMS7003;12220;50.194;18.948;2023-03-02T08:10:23;53;43;27
24012;PMS7003;12220;50.194;18.948;2023-03-02T08:12:30;56;43;26
24012;PMS7003;12220;50.194;18.948;2023-03-02T08:14:31;54;42;24
24012;PMS7003;12220;50.194;18.948;2023-03-02T08:16:33;52;42;23
24012;PMS7003;12220;50.194;18.948;2023-03-02T08:18:35;53;39;23
24012;PMS7003;12220;50.194;18.948;2023-03-02T08:20:45;52;40;26
24012;PMS7003;12220;50.194;18.948;2023-03-02T08:22:47;49;38;23
24012;PMS7003;12220;50.194;18.948;2023-03-02T08:24:48;46;38;23
24012;PMS7003;12220;50.194;18.948;2023-03-02T08:26:50;52;42;25
24012;PMS7003;12220;50.194;18.948;2023-03-02T08:29:00;32;30;19
24012;PMS7003;12220;50.194;18.948;2023-03-02T08:31:02;47;37;22
24012;PMS7003;12220;50.194;18.948;2023-03-02T08:33:05;46;38;22
24012;PMS7003;12220;50.194;18.948;2023-03-02T08:35:07;49;39;24
24012;PMS7003;12220;50.194;18.948;2023-03-02T08:37:16;45;36;21
24012;PMS7003;12220;50.194;18.948;2023-03-02T08:39:19;37;33;21
24012;PMS7003;12220;50.194;18.948;2023-03-02T08:41:23;42;29;19
24012;PMS7003;12220;50.194;18.948;2023-03-02T08:43:26;36;31;21
24012;PMS7003;12220;50.194;18.948;2023-03-02T08:45:31;41;33;20
24012;PMS7003;12220;50.194;18.948;2023-03-02T08:47:34;32;29;17
24012;PMS7003;12220;50.194;18.948;2023-03-02T08:49:36;29;28;16
24012;PMS7003;12220;50.194;18.948;2023-03-02T08:51:40;38;33;21
24012;PMS7003;12220;50.194;18.948;2023-03-02T08:53:47;31;27;17
24012;PMS7003;12220;50.194;18.948;2023-03-02T08:58:16;36;31;19
24012;PMS7003;12220;50.194;18.948;2023-03-02T09:00:18;26;25;17
24012;PMS7003;12220;50.194;18.948;2023-03-02T09:02:20;29;28;17
24012;PMS7003;12220;50.194;18.948;2023-03-02T09:04:23;26;24;16
24012;PMS7003;12220;50.194;18.948;2023-03-02T09:06:25;29;24;13
24012;PMS7003;12220;50.194;18.948;2023-03-02T09:08:30;38;33;20
24012;PMS7003;12220;50.194;18.948;2023-03-02T09:10:32;37;30;20
24012;PMS7003;12220;50.194;18.948;2023-03-02T09:12:38;42;33;19
24012;PMS7003;12220;50.194;18.948;2023-03-02T09:14:39;35;29;19
24012;PMS7003;12220;50.194;18.948;2023-03-02T09:16:41;33;29;15
24012;PMS7003;12220;50.194;18.948;2023-03-02T09:18:42;34;31;19
24012;PMS7003;12220;50.194;18.948;2023-03-02T09:20:53;31;30;17
24012;PMS7003;12220;50.194;18.948;2023-03-02T09:22:56;29;24;15
24012;PMS7003;12220;50.194;18.948;2023-03-02T09:24:58;28;25;17
24012;PMS7003;12220;50.194;18.948;2023-03-02T09:26:59;33;26;19
24012;PMS7003;12220;50.194;18.948;2023-03-02T09:29:08;22;20;15
24012;PMS7003;12220;50.194;18.948;2023-03-02T09:31:10;23;20;15
24012;PMS7003;12220;50.194;18.948;2023-03-02T09:33:12;24;24;15
24012;PMS7003;12220;50.194;18.948;2023-03-02T09:35:13;25;24;15
24012;PMS7003;12220;50.194;18.948;2023-03-02T09:37:23;29;27;17
24012;PMS7003;12220;50.194;18.948;2023-03-02T09:39:25;28;23;17
24012;PMS7003;12220;50.194;18.948;2023-03-02T09:41:30;21;20;12
24012;PMS7003;12220;50.194;18.948;2023-03-02T09:45:57;14;14;10
24012;PMS7003;12220;50.194;18.948;2023-03-02T09:57:27;23;21;15
24012;PMS7003;12220;50.194;18.948;2023-03-02T09:59:47;23;20;12
24012;PMS7003;12220;50.194;18.948;2023-03-02T10:01:58;21;20;16
24012;PMS7003;12220;50.194;18.948;2023-03-02T10:04:23;20;16;11
24012;PMS7003;12220;50.194;18.948;2023-03-02T10:06:19;15;15;10
24012;PMS7003;12220;50.194;18.948;2023-03-02T10:08:24;23;17;14
24012;PMS7003;12220;50.194;18.948;2023-03-02T10:10:36;17;13;10
24012;PMS7003;12220;50.194;18.948;2023-03-02T10:12:58;22;20;14
24012;PMS7003;12220;50.194;18.948;2023-03-02T10:15:15;17;17;13
24012;PMS7003;12220;50.194;18.948;2023-03-02T10:17:31;17;17;13
24012;PMS7003;12220;50.194;18.948;2023-03-02T10:19:46;18;16;12
24012;PMS7003;12220;50.194;18.948;2023-03-02T10:30:49;23;19;13
24012;PMS7003;12220;50.194;18.948;2023-03-02T10:33:14;23;19;13
24012;PMS7003;12220;50.194;18.948;2023-03-02T10:35:19;24;21;17
24012;PMS7003;12220;50.194;18.948;2023-03-02T10:37:24;21;16;10
24012;PMS7003;12220;50.194;18.948;2023-03-02T10:39:28;27;18;12
24012;PMS7003;12220;50.194;18.948;2023-03-02T10:41:34;20;17;12
24012;PMS7003;12220;50.194;18.948;2023-03-02T10:46:11;13;13;9
24012;PMS7003;12220;50.194;18.948;2023-03-02T10:48:13;28;17;13
24012;PMS7003;12220;50.194;18.948;2023-03-02T10:52:24;21;16;12
24012;PMS7003;12220;50.194;18.948;2023-03-02T10:54:27;20;16;12
24012;PMS7003;12220;50.194;18.948;2023-03-02T10:56:31;16;16;13
24012;PMS7003;12220;50.194;18.948;2023-03-02T10:58:33;22;19;14
24012;PMS7003;12220;50.194;18.948;2023-03-02T11:00:35;20;18;12
24012;PMS7003;12220;50.194;18.948;2023-03-02T11:02:51;14;13;9
24012;PMS7003;12220;50.194;18.948;2023-03-02T11:07:25;23;22;14
24012;PMS7003;12220;50.194;18.948;2023-03-02T11:09:28;23;21;16
24012;PMS7003;12220;50.194;18.948;2023-03-02T11:11:30;16;15;10
24012;PMS7003;12220;50.194;18.948;2023-03-02T11:13:34;20;19;13
24012;PMS7003;12220;50.194;18.948;2023-03-02T11:17:49;23;18;12
24012;PMS7003;12220;50.194;18.948;2023-03-02T11:19:58;20;20;14
24012;PMS7003;12220;50.194;18.948;2023-03-02T11:28:47;18;16;9
24012;PMS7003;12220;50.194;18.948;2023-03-02T11:30:56;16;15;10
24012;PMS7003;12220;50.194;18.948;2023-03-02T11:33:06;28;25;17
24012;PMS7003;12220;50.194;18.948;2023-03-02T11:35:21;19;16;13
24012;PMS7003;12220;50.194;18.948;2023-03-02T11:37:28;24;20;16
24012;PMS7003;12220;50.194;18.948;2023-03-02T11:40:25;35;27;18
24012;PMS7003;12220;50.194;18.948;2023-03-02T11:41:52;27;26;17
24012;PMS7003;12220;50.194;18.948;2023-03-02T11:43:57;26;20;14
24012;PMS7003;12220;50.194;18.948;2023-03-02T11:46:02;32;27;17
24012;PMS7003;12220;50.194;18.948;2023-03-02T11:48:06;23;21;13
24012;PMS7003;12220;50.194;18.948;2023-03-02T11:50:14;22;21;14
24012;PMS7003;12220;50.194;18.948;2023-03-02T11:52:20;27;27;17
24012;PMS7003;12220;50.194;18.948;2023-03-02T11:56:37;26;22;15
24012;PMS7003;12220;50.194;18.948;2023-03-02T11:58:40;26;22;16
24012;PMS7003;12220;50.194;18.948;2023-03-02T12:00:51;18;16;12
24012;PMS7003;12220;50.194;18.948;2023-03-02T12:07:22;21;21;14
24012;PMS7003;12220;50.194;18.948;2023-03-02T12:09:31;26;20;14
24012;PMS7003;12220;50.194;18.948;2023-03-02T12:11:39;18;18;13
24012;PMS7003;12220;50.194;18.948;2023-03-02T12:13:41;23;20;13
24012;PMS7003;12220;50.194;18.948;2023-03-02T12:15:46;22;18;14
24012;PMS7003;12220;50.194;18.948;2023-03-02T12:17:52;27;17;11
24012;PMS7003;12220;50.194;18.948;2023-03-02T12:20:39;20;17;13
24012;PMS7003;12220;50.194;18.948;2023-03-02T12:22:23;18;17;14
24012;PMS7003;12220;50.194;18.948;2023-03-02T12:24:35;25;17;12
24012;PMS7003;12220;50.194;18.948;2023-03-02T12:26:39;20;19;12
24012;PMS7003;12220;50.194;18.948;2023-03-02T12:28:54;17;15;10
24012;PMS7003;12220;50.194;18.948;2023-03-02T12:33:17;16;14;12
24012;PMS7003;12220;50.194;18.948;2023-03-02T12:35:22;20;18;13
24012;PMS7003;12220;50.194;18.948;2023-03-02T12:37:40;15;12;10
24012;PMS7003;12220;50.194;18.948;2023-03-02T12:40:41;11;11;8
24012;PMS7003;12220;50.194;18.948;2023-03-02T12:44:44;18;17;11
24012;PMS7003;12220;50.194;18.948;2023-03-02T12:46:58;16;15;10
24012;PMS7003;12220;50.194;18.948;2023-03-02T12:51:18;21;16;12
24012;PMS7003;12220;50.194;18.948;2023-03-02T12:53:24;15;14;10
24012;PMS7003;12220;50.194;18.948;2023-03-02T12:55:26;24;23;14
24012;PMS7003;12220;50.194;18.948;2023-03-02T12:57:28;20;17;13
24012;PMS7003;12220;50.194;18.948;2023-03-02T12:59:30;10;9;4
24012;PMS7003;12220;50.194;18.948;2023-03-02T13:01:32;25;20;13
24012;PMS7003;12220;50.194;18.948;2023-03-02T13:03:43;26;19;14
24012;PMS7003;12220;50.194;18.948;2023-03-02T13:05:45;26;17;12
24012;PMS7003;12220;50.194;18.948;2023-03-02T13:10:02;13;12;7
24012;PMS7003;12220;50.194;18.948;2023-03-02T13:12:12;21;15;11
24012;PMS7003;12220;50.194;18.948;2023-03-02T13:16:35;21;16;11
24012;PMS7003;12220;50.194;18.948;2023-03-02T13:18:37;18;12;11
24012;PMS7003;12220;50.194;18.948;2023-03-02T13:20:39;15;14;10
24012;PMS7003;12220;50.194;18.948;2023-03-02T13:22:41;18;15;10
24012;PMS7003;12220;50.194;18.948;2023-03-02T13:24:54;12;11;7
24012;PMS7003;12220;50.194;18.948;2023-03-02T13:27:03;14;13;9
24012;PMS7003;12220;50.194;18.948;2023-03-02T13:31:23;14;12;9
24012;PMS7003;12220;50.194;18.948;2023-03-02T13:33:25;12;11;8
24012;PMS7003;12220;50.194;18.948;2023-03-02T13:35:33;13;12;9
24012;PMS7003;12220;50.194;18.948;2023-03-02T13:37:38;16;14;10
24012;PMS7003;12220;50.194;18.948;2023-03-02T13:39:43;15;14;11
24012;PMS7003;12220;50.194;18.948;2023-03-02T13:41:56;17;13;8
24012;PMS7003;12220;50.194;18.948;2023-03-02T13:44:10;18;17;11
24012;PMS7003;12220;50.194;18.948;2023-03-02T13:48:31;18;17;14
24012;PMS7003;12220;50.194;18.948;2023-03-02T13:50:33;18;17;12
24012;PMS7003;12220;50.194;18.948;2023-03-02T13:52:34;17;14;12
24012;PMS7003;12220;50.194;18.948;2023-03-02T13:54:36;18;17;9
24012;PMS7003;12220;50.194;18.948;2023-03-02T13:56:46;22;18;10
24012;PMS7003;12220;50.194;18.948;2023-03-02T13:58:48;17;15;10
24012;PMS7003;12220;50.194;18.948;2023-03-02T14:00:50;21;20;12
24012;PMS7003;12220;50.194;18.948;2023-03-02T14:02:52;25;20;13
24012;PMS7003;12220;50.194;18.948;2023-03-02T14:05:01;27;18;12
24012;PMS7003;12220;50.194;18.948;2023-03-02T14:07:06;23;19;12
24012;PMS7003;12220;50.194;18.948;2023-03-02T14:09:07;30;22;14
24012;PMS7003;12220;50.194;18.948;2023-03-02T14:11:09;24;19;15
24012;PMS7003;12220;50.194;18.948;2023-03-02T14:13:16;20;18;14
24012;PMS7003;12220;50.194;18.948;2023-03-02T14:15:25;21;20;16
24012;PMS7003;12220;50.194;18.948;2023-03-02T14:17:27;21;20;14
24012;PMS7003;12220;50.194;18.948;2023-03-02T14:19:29;18;17;13
24012;PMS7003;12220;50.194;18.948;2023-03-02T14:21:32;16;15;12
24012;PMS7003;12220;50.194;18.948;2023-03-02T14:23:35;20;17;12
24012;PMS7003;12220;50.194;18.948;2023-03-02T14:25:40;18;16;11
24012;PMS7003;12220;50.194;18.948;2023-03-02T14:27:42;20;18;12
24012;PMS7003;12220;50.194;18.948;2023-03-02T14:29:47;15;15;9
24012;PMS7003;12220;50.194;18.948;2023-03-02T14:31:48;16;15;11
24012;PMS7003;12220;50.194;18.948;2023-03-02T14:33:50;31;22;14
24012;PMS7003;12220;50.194;18.948;2023-03-02T14:35:53;26;21;14
24012;PMS7003;12220;50.194;18.948;2023-03-02T14:38:02;22;20;15
24012;PMS7003;12220;50.194;18.948;2023-03-02T14:40:04;22;19;14
24012;PMS7003;12220;50.194;18.948;2023-03-02T14:42:13;20;19;12
24012;PMS7003;12220;50.194;18.948;2023-03-02T14:44:16;19;17;12
24012;PMS7003;12220;50.194;18.948;2023-03-02T14:46:18;14;13;11
24012;PMS7003;12220;50.194;18.948;2023-03-02T14:48:19;13;12;10
24012;PMS7003;12220;50.194;18.948;2023-03-02T14:50:21;18;12;10
24012;PMS7003;12220;50.194;18.948;2023-03-02T14:54:54;15;12;7
24012;PMS7003;12220;50.194;18.948;2023-03-02T14:56:53;14;11;9
24012;PMS7003;12220;50.194;18.948;2023-03-02T14:58:55;9;6;5
24012;PMS7003;12220;50.194;18.948;2023-03-02T15:00:59;14;12;9
24012;PMS7003;12220;50.194;18.948;2023-03-02T15:03:01;11;11;8
24012;PMS7003;12220;50.194;18.948;2023-03-02T15:05:08;14;12;9
24012;PMS7003;12220;50.194;18.948;2023-03-02T15:07:10;18;16;11
24012;PMS7003;12220;50.194;18.948;2023-03-02T15:09:15;17;14;9
24012;PMS7003;12220;50.194;18.948;2023-03-02T15:11:17;20;16;10
24012;PMS7003;12220;50.194;18.948;2023-03-02T15:13:23;12;12;9
24012;PMS7003;12220;50.194;18.948;2023-03-02T15:15:25;14;9;6
24012;PMS7003;12220;50.194;18.948;2023-03-02T15:17:27;10;8;6
24012;PMS7003;12220;50.194;18.948;2023-03-02T15:19:29;10;10;6
24012;PMS7003;12220;50.194;18.948;2023-03-02T15:21:38;10;9;6
24012;PMS7003;12220;50.194;18.948;2023-03-02T15:23:45;7;7;6
24012;PMS7003;12220;50.194;18.948;2023-03-02T15:25:47;10;10;7
24012;PMS7003;12220;50.194;18.948;2023-03-02T15:27:49;9;9;6
24012;PMS7003;12220;50.194;18.948;2023-03-02T15:29:53;9;8;7
24012;PMS7003;12220;50.194;18.948;2023-03-02T15:31:54;8;7;4
24012;PMS7003;12220;50.194;18.948;2023-03-02T15:33:56;11;9;7
24012;PMS7003;12220;50.194;18.948;2023-03-02T15:35:58;11;11;8
24012;PMS7003;12220;50.194;18.948;2023-03-02T15:38:08;9;8;5
24012;PMS7003;12220;50.194;18.948;2023-03-02T15:40:11;9;9;6
24012;PMS7003;12220;50.194;18.948;2023-03-02T15:42:13;9;7;5
24012;PMS7003;12220;50.194;18.948;2023-03-02T15:44:18;9;7;5
24012;PMS7003;12220;50.194;18.948;2023-03-02T15:46:23;15;12;8
24012;PMS7003;12220;50.194;18.948;2023-03-02T15:48:25;9;9;8
24012;PMS7003;12220;50.194;18.948;2023-03-02T15:50:29;11;8;5